Observations for HUMBERSIDE, United Kingdom (EGNJ)

EGNJ 190320Z AUTO 20012KT 9999 BKN020/// BKN025/// 17/14 Q1007  
EGNJ 190250Z AUTO 20011KT 9999 SCT023/// BKN028/// 17/14 Q1007  
EGNJ 190220Z AUTO 21013KT 9999 SCT023/// BKN030/// 17/14 Q1007  
EGNJ 190150Z AUTO 21017KT 9999 SCT026/// BKN031/// 18/14 Q1007  
EGNJ 190120Z AUTO 21014KT 9999 SCT025/// 18/14 Q1007
EGNJ 190050Z AUTO 21014KT 9999 NCD 18/14 Q1007  
EGNJ 190020Z AUTO 21020KT 9999 FEW030/// 18/14 Q1007
EGNJ 182350Z AUTO 21018KT 9999 BKN025/// 19/14 Q1007
EGNJ 182320Z AUTO 22019KT 9999 FEW022/// SCT027/// 19/14 Q1007  
EGNJ 182250Z AUTO 21021KT 9999 FEW024/// SCT030/// 19/14 Q1007  
EGNJ 182220Z AUTO 20021KT 9999 NCD 19/15 Q1006  
EGNJ 182150Z AUTO 20020KT 9999 NCD 18/15 Q1006  
EGNJ 182120Z AUTO 20019KT 9999 NCD 19/15 Q1006  
EGNJ 182050Z AUTO 20016KT 9999 NCD 18/14 Q1006  
EGNJ 182020Z 20015KT CAVOK 19/14 Q1007  
EGNJ 181950Z 21017KT CAVOK 19/14 Q1007  
EGNJ 181920Z 20016KT CAVOK 19/14 Q1006  
EGNJ 181850Z 20018KT 9999 FEW022 19/14 Q1006
EGNJ 181820Z 21017KT 9999 FEW022 20/14 Q1006
EGNJ 181750Z 22021KT 9999 FEW022 21/14 Q1006
EGNJ 181720Z 22020KT 9999 FEW022 SCT037 21/14 Q1006 
EGNJ 181650Z 22020KT 9999 FEW022 SCT037 22/13 Q1005 
EGNJ 181620Z 22021KT 9999 FEW022 SCT037 22/14 Q1005 
EGNJ 181550Z 22025KT 9999 SCT022 22/13 Q1005
EGNJ 181520Z 22025KT 9999 SCT022 23/13 Q1005
EGNJ 181450Z 23023KT 9999 SCT034 SCT041 22/13 Q1005 
EGNJ 181420Z 24024KT 9999 SCT038 22/13 Q1004
EGNJ 181350Z 23026KT 9999 SCT038 22/12 Q1004
EGNJ 181320Z 24026KT 9999 FEW035 22/12 Q1004
EGNJ 181250Z 23028KT 9999 FEW035 22/12 Q1003
EGNJ 181220Z 23027KT 9999 SCT034 22/12 Q1003
EGNJ 181150Z 23029KT 9999 SCT034 22/13 Q1002
EGNJ 181120Z 23027KT 9999 SCT021 SCT026 22/14 Q1002 
EGNJ 181050Z 22025KT 9999 SCT022 BKN028 21/15 Q1001 
EGNJ 181020Z 22026G36KT 9999 FEW018 SCT024 BKN030 21/16 Q1001   
EGNJ 180950Z 21028G38KT 9999 SCT017 BKN022 20/16 Q1000  
EGNJ 180920Z 21028KT 9999 SCT017 BKN022 20/16 Q1000 
EGNJ 180850Z 21031KT 9999 SCT020 BKN025 20/16 Q0999 
EGNJ 180820Z 20028G38KT 9999 SCT020 BKN026 20/16 Q0999  
EGNJ 180750Z 20026KT 9999 SCT018 BKN025 20/16 Q0998 
EGNJ 180720Z 19019KT 9999 SCT018 BKN025 19/16 Q0999 
EGNJ 180650Z 18020KT 9999 FEW016 SCT021 BKN028 19/15 Q0998  
EGNJ 180620Z 18019KT 9999 SCT021 BKN027 18/15 Q0999 
EGNJ 180550Z 17019KT 9999 BKN028 18/14 Q0999
EGNJ 180520Z 18017KT 9999 FEW020 SCT028 17/14 Q0999 
EGNJ 180450Z 17021KT 9999 SCT022 17/13 Q0999
EGNJ 180420Z AUTO 18018G28KT 9999 NCD 17/13 Q1000   
EGNJ 180350Z AUTO 18016KT 9999 NCD 16/12 Q1000  
EGNJ 180320Z AUTO 19016KT 9999 FEW018/// 16/11 Q1001
EGNJ 180250Z AUTO 19015KT 9999 NCD 16/10 Q1002